sensor_id;sensor_type;location;lat;lon;timestamp;pressure;altitude;pressure_sealevel;temperature
48003;BMP280;33768;48.578;11.574;2023-08-24T00:01:57;96755.84;;;19.19
48003;BMP280;33768;48.578;11.574;2023-08-24T00:05:01;96767.88;;;19.31
48003;BMP280;33768;48.578;11.574;2023-08-24T00:08:06;96755.09;;;19.36
48003;BMP280;33768;48.578;11.574;2023-08-24T00:11:10;96755.38;;;19.40
48003;BMP280;33768;48.578;11.574;2023-08-24T00:14:18;96759.47;;;19.39
48003;BMP280;33768;48.578;11.574;2023-08-24T00:17:22;96752.06;;;19.41
48003;BMP280;33768;48.578;11.574;2023-08-24T00:20:27;96756.09;;;19.40
48003;BMP280;33768;48.578;11.574;2023-08-24T00:23:31;96763.22;;;19.34
48003;BMP280;33768;48.578;11.574;2023-08-24T00:26:36;96751.53;;;19.26
48003;BMP280;33768;48.578;11.574;2023-08-24T00:29:40;96749.16;;;19.22
48003;BMP280;33768;48.578;11.574;2023-08-24T00:32:44;96749.34;;;19.24
48003;BMP280;33768;48.578;11.574;2023-08-24T00:35:49;96745.56;;;19.29
48003;BMP280;33768;48.578;11.574;2023-08-24T00:38:53;96755.66;;;19.34
48003;BMP280;33768;48.578;11.574;2023-08-24T00:41:57;96754.66;;;19.39
48003;BMP280;33768;48.578;11.574;2023-08-24T00:45:01;96753.03;;;19.36
48003;BMP280;33768;48.578;11.574;2023-08-24T00:48:07;96748.50;;;19.31
48003;BMP280;33768;48.578;11.574;2023-08-24T00:51:11;96747.44;;;19.27
48003;BMP280;33768;48.578;11.574;2023-08-24T00:54:16;96744.84;;;19.29
48003;BMP280;33768;48.578;11.574;2023-08-24T00:57:21;96753.97;;;19.22
48003;BMP280;33768;48.578;11.574;2023-08-24T01:00:26;96754.97;;;19.17
48003;BMP280;33768;48.578;11.574;2023-08-24T01:03:30;96744.94;;;19.21
48003;BMP280;33768;48.578;11.574;2023-08-24T01:06:34;96745.13;;;19.23
48003;BMP280;33768;48.578;11.574;2023-08-24T01:09:39;96743.50;;;19.20
48003;BMP280;33768;48.578;11.574;2023-08-24T01:13:03;96741.56;;;19.13
48003;BMP280;33768;48.578;11.574;2023-08-24T01:16:16;96742.09;;;19.03
48003;BMP280;33768;48.578;11.574;2023-08-24T01:19:34;96746.97;;;18.95
48003;BMP280;33768;48.578;11.574;2023-08-24T01:26:06;96733.78;;;19.03
48003;BMP280;33768;48.578;11.574;2023-08-24T01:29:11;96746.63;;;19.08
48003;BMP280;33768;48.578;11.574;2023-08-24T01:32:15;96744.09;;;19.02
48003;BMP280;33768;48.578;11.574;2023-08-24T01:35:19;96747.28;;;18.99
48003;BMP280;33768;48.578;11.574;2023-08-24T01:38:24;96739.16;;;19.01
48003;BMP280;33768;48.578;11.574;2023-08-24T01:41:35;96739.88;;;19.01
48003;BMP280;33768;48.578;11.574;2023-08-24T01:44:44;96732.31;;;19.02
48003;BMP280;33768;48.578;11.574;2023-08-24T01:47:51;96737.28;;;19.03
48003;BMP280;33768;48.578;11.574;2023-08-24T01:51:00;96742.38;;;19.07
48003;BMP280;33768;48.578;11.574;2023-08-24T01:54:05;96735.88;;;19.12
48003;BMP280;33768;48.578;11.574;2023-08-24T01:57:10;96741.56;;;19.13
48003;BMP280;33768;48.578;11.574;2023-08-24T02:00:14;96738.06;;;19.13
48003;BMP280;33768;48.578;11.574;2023-08-24T02:03:19;96725.63;;;19.05
48003;BMP280;33768;48.578;11.574;2023-08-24T02:06:23;96726.31;;;18.79
48003;BMP280;33768;48.578;11.574;2023-08-24T02:09:27;96721.56;;;18.63
48003;BMP280;33768;48.578;11.574;2023-08-24T02:12:31;96720.25;;;18.64
48003;BMP280;33768;48.578;11.574;2023-08-24T02:15:37;96719.84;;;18.67
48003;BMP280;33768;48.578;11.574;2023-08-24T02:18:42;96711.06;;;18.61
48003;BMP280;33768;48.578;11.574;2023-08-24T02:21:46;96717.41;;;18.54
48003;BMP280;33768;48.578;11.574;2023-08-24T02:24:51;96715.53;;;18.57
48003;BMP280;33768;48.578;11.574;2023-08-24T02:27:55;96722.94;;;18.54
48003;BMP280;33768;48.578;11.574;2023-08-24T02:31:03;96712.00;;;18.47
48003;BMP280;33768;48.578;11.574;2023-08-24T02:34:07;96714.88;;;18.49
48003;BMP280;33768;48.578;11.574;2023-08-24T02:37:11;96706.94;;;18.53
48003;BMP280;33768;48.578;11.574;2023-08-24T02:40:15;96705.78;;;18.56
48003;BMP280;33768;48.578;11.574;2023-08-24T02:43:19;96707.56;;;18.61
48003;BMP280;33768;48.578;11.574;2023-08-24T02:46:24;96701.47;;;18.62
48003;BMP280;33768;48.578;11.574;2023-08-24T02:49:28;96700.72;;;18.62
48003;BMP280;33768;48.578;11.574;2023-08-24T02:52:32;96707.16;;;18.64
48003;BMP280;33768;48.578;11.574;2023-08-24T02:55:36;96699.91;;;18.69
48003;BMP280;33768;48.578;11.574;2023-08-24T02:58:40;96707.66;;;18.70
48003;BMP280;33768;48.578;11.574;2023-08-24T03:01:44;96705.44;;;18.69
48003;BMP280;33768;48.578;11.574;2023-08-24T03:04:48;96698.13;;;18.64
48003;BMP280;33768;48.578;11.574;2023-08-24T03:07:55;96699.84;;;18.59
48003;BMP280;33768;48.578;11.574;2023-08-24T03:11:00;96699.19;;;18.51
48003;BMP280;33768;48.578;11.574;2023-08-24T03:14:04;96689.22;;;18.39
48003;BMP280;33768;48.578;11.574;2023-08-24T03:17:08;96694.81;;;18.32
48003;BMP280;33768;48.578;11.574;2023-08-24T03:20:12;96699.16;;;18.25
48003;BMP280;33768;48.578;11.574;2023-08-24T03:23:18;96694.75;;;18.22
48003;BMP280;33768;48.578;11.574;2023-08-24T03:26:22;96703.38;;;18.26
48003;BMP280;33768;48.578;11.574;2023-08-24T03:29:27;96701.41;;;18.36
48003;BMP280;33768;48.578;11.574;2023-08-24T03:32:31;96703.91;;;18.42
48003;BMP280;33768;48.578;11.574;2023-08-24T03:35:36;96699.47;;;18.46
48003;BMP280;33768;48.578;11.574;2023-08-24T03:38:40;96704.34;;;18.55
48003;BMP280;33768;48.578;11.574;2023-08-24T03:41:44;96697.97;;;18.62
48003;BMP280;33768;48.578;11.574;2023-08-24T03:44:49;96705.88;;;18.65
48003;BMP280;33768;48.578;11.574;2023-08-24T03:47:53;96700.34;;;18.65
48003;BMP280;33768;48.578;11.574;2023-08-24T03:50:58;96694.06;;;18.65
48003;BMP280;33768;48.578;11.574;2023-08-24T03:54:02;96702.94;;;18.63
48003;BMP280;33768;48.578;11.574;2023-08-24T03:57:06;96700.16;;;18.63
48003;BMP280;33768;48.578;11.574;2023-08-24T04:00:11;96704.53;;;18.66
48003;BMP280;33768;48.578;11.574;2023-08-24T04:03:19;96706.59;;;18.66
48003;BMP280;33768;48.578;11.574;2023-08-24T04:06:23;96702.28;;;18.55
48003;BMP280;33768;48.578;11.574;2023-08-24T04:09:27;96697.75;;;18.34
48003;BMP280;33768;48.578;11.574;2023-08-24T04:12:32;96714.34;;;18.34
48003;BMP280;33768;48.578;11.574;2023-08-24T04:15:39;96703.78;;;18.40
48003;BMP280;33768;48.578;11.574;2023-08-24T04:18:45;96705.31;;;18.50
48003;BMP280;33768;48.578;11.574;2023-08-24T04:21:49;96710.16;;;18.59
48003;BMP280;33768;48.578;11.574;2023-08-24T04:24:53;96709.91;;;18.64
48003;BMP280;33768;48.578;11.574;2023-08-24T04:27:57;96712.41;;;18.70
48003;BMP280;33768;48.578;11.574;2023-08-24T04:31:01;96715.78;;;18.68
48003;BMP280;33768;48.578;11.574;2023-08-24T04:34:05;96716.75;;;18.63
48003;BMP280;33768;48.578;11.574;2023-08-24T04:37:10;96714.16;;;18.65
48003;BMP280;33768;48.578;11.574;2023-08-24T04:40:14;96704.72;;;18.68
48003;BMP280;33768;48.578;11.574;2023-08-24T04:43:18;96703.19;;;18.58
48003;BMP280;33768;48.578;11.574;2023-08-24T04:46:23;96701.50;;;18.46
48003;BMP280;33768;48.578;11.574;2023-08-24T04:49:27;96698.09;;;18.21
48003;BMP280;33768;48.578;11.574;2023-08-24T04:52:32;96694.44;;;18.18
48003;BMP280;33768;48.578;11.574;2023-08-24T04:55:36;96690.59;;;18.31
48003;BMP280;33768;48.578;11.574;2023-08-24T04:58:52;96687.84;;;18.48
48003;BMP280;33768;48.578;11.574;2023-08-24T05:01:55;96690.25;;;18.60
48003;BMP280;33768;48.578;11.574;2023-08-24T05:05:00;96692.09;;;18.75
48003;BMP280;33768;48.578;11.574;2023-08-24T05:08:05;96695.25;;;18.88
48003;BMP280;33768;48.578;11.574;2023-08-24T05:11:18;96685.13;;;19.00
48003;BMP280;33768;48.578;11.574;2023-08-24T05:14:22;96682.16;;;19.14
48003;BMP280;33768;48.578;11.574;2023-08-24T05:17:27;96684.53;;;19.27
48003;BMP280;33768;48.578;11.574;2023-08-24T05:20:32;96687.50;;;19.39
48003;BMP280;33768;48.578;11.574;2023-08-24T05:23:36;96687.53;;;19.48
48003;BMP280;33768;48.578;11.574;2023-08-24T05:26:39;96682.34;;;19.61
48003;BMP280;33768;48.578;11.574;2023-08-24T05:29:44;96691.53;;;19.64
48003;BMP280;33768;48.578;11.574;2023-08-24T05:32:48;96689.16;;;19.51
48003;BMP280;33768;48.578;11.574;2023-08-24T05:35:53;96685.91;;;19.36
48003;BMP280;33768;48.578;11.574;2023-08-24T05:38:56;96680.31;;;19.26
48003;BMP280;33768;48.578;11.574;2023-08-24T05:42:00;96684.41;;;19.25
48003;BMP280;33768;48.578;11.574;2023-08-24T05:45:05;96682.34;;;19.26
48003;BMP280;33768;48.578;11.574;2023-08-24T05:48:10;96688.94;;;19.30
48003;BMP280;33768;48.578;11.574;2023-08-24T05:51:14;96692.00;;;19.34
48003;BMP280;33768;48.578;11.574;2023-08-24T05:54:18;96689.69;;;19.40
48003;BMP280;33768;48.578;11.574;2023-08-24T05:57:22;96685.50;;;19.48
48003;BMP280;33768;48.578;11.574;2023-08-24T06:00:26;96675.75;;;19.57
48003;BMP280;33768;48.578;11.574;2023-08-24T06:03:30;96686.56;;;19.62
48003;BMP280;33768;48.578;11.574;2023-08-24T06:06:35;96684.66;;;19.65
48003;BMP280;33768;48.578;11.574;2023-08-24T06:09:39;96681.91;;;19.65
48003;BMP280;33768;48.578;11.574;2023-08-24T06:12:43;96694.75;;;19.70
48003;BMP280;33768;48.578;11.574;2023-08-24T06:15:47;96683.00;;;19.88
48003;BMP280;33768;48.578;11.574;2023-08-24T06:18:51;96685.22;;;20.17
48003;BMP280;33768;48.578;11.574;2023-08-24T06:21:55;96675.59;;;20.28
48003;BMP280;33768;48.578;11.574;2023-08-24T06:25:00;96669.47;;;20.38
48003;BMP280;33768;48.578;11.574;2023-08-24T06:28:04;96666.28;;;20.51
48003;BMP280;33768;48.578;11.574;2023-08-24T06:31:08;96679.72;;;20.64
48003;BMP280;33768;48.578;11.574;2023-08-24T06:34:13;96673.25;;;20.71
48003;BMP280;33768;48.578;11.574;2023-08-24T06:37:17;96664.19;;;20.80
48003;BMP280;33768;48.578;11.574;2023-08-24T06:40:21;96665.06;;;20.92
48003;BMP280;33768;48.578;11.574;2023-08-24T06:43:25;96666.19;;;21.07
48003;BMP280;33768;48.578;11.574;2023-08-24T06:46:29;96665.69;;;21.20
48003;BMP280;33768;48.578;11.574;2023-08-24T06:49:34;96670.03;;;21.33
48003;BMP280;33768;48.578;11.574;2023-08-24T06:52:38;96670.03;;;21.42
48003;BMP280;33768;48.578;11.574;2023-08-24T06:55:42;96668.47;;;21.60
48003;BMP280;33768;48.578;11.574;2023-08-24T06:58:47;96674.50;;;21.77
48003;BMP280;33768;48.578;11.574;2023-08-24T07:01:52;96669.72;;;21.98
48003;BMP280;33768;48.578;11.574;2023-08-24T07:04:56;96663.25;;;22.26
48003;BMP280;33768;48.578;11.574;2023-08-24T07:08:00;96654.66;;;22.54
48003;BMP280;33768;48.578;11.574;2023-08-24T07:11:06;96646.31;;;22.86
48003;BMP280;33768;48.578;11.574;2023-08-24T07:14:10;96651.19;;;23.08
48003;BMP280;33768;48.578;11.574;2023-08-24T07:17:15;96647.09;;;23.20
48003;BMP280;33768;48.578;11.574;2023-08-24T07:20:19;96646.63;;;23.35
48003;BMP280;33768;48.578;11.574;2023-08-24T07:23:23;96649.56;;;23.59
48003;BMP280;33768;48.578;11.574;2023-08-24T07:26:27;96645.41;;;23.83
48003;BMP280;33768;48.578;11.574;2023-08-24T07:29:33;96629.41;;;23.95
48003;BMP280;33768;48.578;11.574;2023-08-24T07:32:38;96630.44;;;24.13
48003;BMP280;33768;48.578;11.574;2023-08-24T07:35:42;96619.84;;;24.34
48003;BMP280;33768;48.578;11.574;2023-08-24T07:38:46;96619.75;;;24.56
48003;BMP280;33768;48.578;11.574;2023-08-24T07:41:51;96615.91;;;24.75
48003;BMP280;33768;48.578;11.574;2023-08-24T07:44:55;96608.88;;;24.98
48003;BMP280;33768;48.578;11.574;2023-08-24T07:47:59;96600.13;;;25.30
48003;BMP280;33768;48.578;11.574;2023-08-24T07:51:04;96603.78;;;25.59
48003;BMP280;33768;48.578;11.574;2023-08-24T07:54:08;96589.16;;;25.87
48003;BMP280;33768;48.578;11.574;2023-08-24T07:57:12;96591.81;;;26.12
48003;BMP280;33768;48.578;11.574;2023-08-24T08:00:16;96593.06;;;26.51
48003;BMP280;33768;48.578;11.574;2023-08-24T08:03:20;96585.88;;;27.05
48003;BMP280;33768;48.578;11.574;2023-08-24T08:06:24;96581.13;;;27.38
48003;BMP280;33768;48.578;11.574;2023-08-24T08:09:29;96571.31;;;27.69
48003;BMP280;33768;48.578;11.574;2023-08-24T08:12:33;96570.53;;;27.99
48003;BMP280;33768;48.578;11.574;2023-08-24T08:15:38;96570.78;;;28.05
48003;BMP280;33768;48.578;11.574;2023-08-24T08:18:42;96571.78;;;28.29
48003;BMP280;33768;48.578;11.574;2023-08-24T08:21:47;96564.09;;;28.64
48003;BMP280;33768;48.578;11.574;2023-08-24T08:24:51;96567.50;;;28.97
48003;BMP280;33768;48.578;11.574;2023-08-24T08:27:57;96574.50;;;29.32
48003;BMP280;33768;48.578;11.574;2023-08-24T08:31:01;96572.06;;;29.81
48003;BMP280;33768;48.578;11.574;2023-08-24T08:34:07;96581.53;;;30.29
48003;BMP280;33768;48.578;11.574;2023-08-24T08:37:11;96582.22;;;30.51
48003;BMP280;33768;48.578;11.574;2023-08-24T08:40:16;96571.41;;;30.86
48003;BMP280;33768;48.578;11.574;2023-08-24T08:43:21;96577.19;;;30.69
48003;BMP280;33768;48.578;11.574;2023-08-24T08:46:27;96565.47;;;30.55
48003;BMP280;33768;48.578;11.574;2023-08-24T08:49:31;96567.16;;;30.64
48003;BMP280;33768;48.578;11.574;2023-08-24T08:52:36;96574.91;;;30.63
48003;BMP280;33768;48.578;11.574;2023-08-24T08:55:41;96564.28;;;30.83
48003;BMP280;33768;48.578;11.574;2023-08-24T08:58:46;96558.91;;;30.91
48003;BMP280;33768;48.578;11.574;2023-08-24T09:01:50;96561.22;;;30.98
48003;BMP280;33768;48.578;11.574;2023-08-24T09:04:56;96567.38;;;30.70
48003;BMP280;33768;48.578;11.574;2023-08-24T09:08:00;96574.59;;;30.32
48003;BMP280;33768;48.578;11.574;2023-08-24T09:11:06;96563.69;;;30.02
48003;BMP280;33768;48.578;11.574;2023-08-24T09:14:12;96549.88;;;29.69
48003;BMP280;33768;48.578;11.574;2023-08-24T09:17:23;96541.06;;;29.40
48003;BMP280;33768;48.578;11.574;2023-08-24T09:20:28;96535.28;;;30.57
48003;BMP280;33768;48.578;11.574;2023-08-24T09:23:33;96532.03;;;31.84
48003;BMP280;33768;48.578;11.574;2023-08-24T09:26:38;96528.88;;;32.83
48003;BMP280;33768;48.578;11.574;2023-08-24T09:29:50;96526.28;;;33.59
48003;BMP280;33768;48.578;11.574;2023-08-24T09:32:55;96520.47;;;34.25
48003;BMP280;33768;48.578;11.574;2023-08-24T09:35:59;96519.84;;;34.71
48003;BMP280;33768;48.578;11.574;2023-08-24T09:39:07;96507.88;;;35.27
48003;BMP280;33768;48.578;11.574;2023-08-24T09:42:13;96480.06;;;35.72
48003;BMP280;33768;48.578;11.574;2023-08-24T09:45:17;96478.88;;;35.97
48003;BMP280;33768;48.578;11.574;2023-08-24T09:48:22;96474.03;;;36.07
48003;BMP280;33768;48.578;11.574;2023-08-24T09:51:26;96475.97;;;35.89
48003;BMP280;33768;48.578;11.574;2023-08-24T09:54:31;96471.75;;;35.94
48003;BMP280;33768;48.578;11.574;2023-08-24T09:57:39;96467.66;;;36.09
48003;BMP280;33768;48.578;11.574;2023-08-24T10:00:45;96468.69;;;36.51
48003;BMP280;33768;48.578;11.574;2023-08-24T10:03:53;96461.53;;;36.42
48003;BMP280;33768;48.578;11.574;2023-08-24T10:07:08;96465.28;;;36.66
48003;BMP280;33768;48.578;11.574;2023-08-24T10:10:16;96459.88;;;37.11
48003;BMP280;33768;48.578;11.574;2023-08-24T10:13:29;96458.41;;;37.06
48003;BMP280;33768;48.578;11.574;2023-08-24T10:16:36;96451.38;;;37.27
48003;BMP280;33768;48.578;11.574;2023-08-24T10:19:42;96450.09;;;37.56
48003;BMP280;33768;48.578;11.574;2023-08-24T10:22:47;96447.34;;;37.93
48003;BMP280;33768;48.578;11.574;2023-08-24T10:25:51;96445.91;;;37.88
48003;BMP280;33768;48.578;11.574;2023-08-24T10:28:57;96453.66;;;37.50
48003;BMP280;33768;48.578;11.574;2023-08-24T10:32:02;96431.56;;;37.49
48003;BMP280;33768;48.578;11.574;2023-08-24T10:35:07;96439.50;;;37.84
48003;BMP280;33768;48.578;11.574;2023-08-24T10:38:25;96435.84;;;37.52
48003;BMP280;33768;48.578;11.574;2023-08-24T10:41:30;96430.25;;;37.83
48003;BMP280;33768;48.578;11.574;2023-08-24T10:44:49;96418.88;;;38.19
48003;BMP280;33768;48.578;11.574;2023-08-24T10:47:54;96416.00;;;38.50
48003;BMP280;33768;48.578;11.574;2023-08-24T10:54:32;96386.06;;;38.45
48003;BMP280;33768;48.578;11.574;2023-08-24T10:57:38;96379.69;;;38.41
48003;BMP280;33768;48.578;11.574;2023-08-24T11:00:48;96376.03;;;38.66
48003;BMP280;33768;48.578;11.574;2023-08-24T11:03:56;96373.25;;;38.56
48003;BMP280;33768;48.578;11.574;2023-08-24T11:07:00;96373.28;;;38.32
48003;BMP280;33768;48.578;11.574;2023-08-24T11:10:13;96359.75;;;38.11
48003;BMP280;33768;48.578;11.574;2023-08-24T11:13:17;96356.81;;;38.64
48003;BMP280;33768;48.578;11.574;2023-08-24T11:16:43;96347.59;;;38.54
48003;BMP280;33768;48.578;11.574;2023-08-24T11:19:52;96344.78;;;38.21
48003;BMP280;33768;48.578;11.574;2023-08-24T11:22:56;96331.22;;;38.45
48003;BMP280;33768;48.578;11.574;2023-08-24T11:26:00;96332.66;;;38.44
48003;BMP280;33768;48.578;11.574;2023-08-24T11:29:05;96327.72;;;38.11
48003;BMP280;33768;48.578;11.574;2023-08-24T11:32:10;96309.16;;;38.25
48003;BMP280;33768;48.578;11.574;2023-08-24T11:35:14;96301.97;;;38.56
48003;BMP280;33768;48.578;11.574;2023-08-24T11:38:19;96311.81;;;38.88
48003;BMP280;33768;48.578;11.574;2023-08-24T11:41:23;96304.78;;;38.68
48003;BMP280;33768;48.578;11.574;2023-08-24T11:44:28;96308.16;;;39.08
48003;BMP280;33768;48.578;11.574;2023-08-24T11:47:32;96305.69;;;39.63
48003;BMP280;33768;48.578;11.574;2023-08-24T11:50:37;96287.25;;;39.45
48003;BMP280;33768;48.578;11.574;2023-08-24T11:53:42;96289.63;;;39.11
48003;BMP280;33768;48.578;11.574;2023-08-24T11:56:47;96312.53;;;38.89
48003;BMP280;33768;48.578;11.574;2023-08-24T11:59:51;96314.03;;;38.64
48003;BMP280;33768;48.578;11.574;2023-08-24T12:02:57;96311.88;;;38.79
48003;BMP280;33768;48.578;11.574;2023-08-24T12:06:01;96308.91;;;39.06
48003;BMP280;33768;48.578;11.574;2023-08-24T12:09:08;96308.66;;;39.46
48003;BMP280;33768;48.578;11.574;2023-08-24T12:12:14;96304.97;;;39.63
48003;BMP280;33768;48.578;11.574;2023-08-24T12:15:19;96308.19;;;39.10
48003;BMP280;33768;48.578;11.574;2023-08-24T12:18:26;96301.94;;;38.68
48003;BMP280;33768;48.578;11.574;2023-08-24T12:21:30;96304.19;;;38.32
48003;BMP280;33768;48.578;11.574;2023-08-24T12:24:34;96303.50;;;37.76
48003;BMP280;33768;48.578;11.574;2023-08-24T12:27:38;96289.97;;;37.61
48003;BMP280;33768;48.578;11.574;2023-08-24T12:30:52;96292.81;;;37.69
48003;BMP280;33768;48.578;11.574;2023-08-24T12:34:07;96295.63;;;37.18
48003;BMP280;33768;48.578;11.574;2023-08-24T12:37:14;96295.59;;;37.12
48003;BMP280;33768;48.578;11.574;2023-08-24T12:40:18;96285.66;;;37.21
48003;BMP280;33768;48.578;11.574;2023-08-24T12:43:23;96285.63;;;37.17
48003;BMP280;33768;48.578;11.574;2023-08-24T12:46:27;96280.66;;;37.05
48003;BMP280;33768;48.578;11.574;2023-08-24T12:49:31;96269.19;;;36.78
48003;BMP280;33768;48.578;11.574;2023-08-24T12:52:35;96264.84;;;36.53
48003;BMP280;33768;48.578;11.574;2023-08-24T12:55:40;96264.94;;;36.91
48003;BMP280;33768;48.578;11.574;2023-08-24T12:58:44;96250.81;;;37.26
48003;BMP280;33768;48.578;11.574;2023-08-24T13:01:48;96252.91;;;36.96
48003;BMP280;33768;48.578;11.574;2023-08-24T13:04:52;96242.28;;;37.18
48003;BMP280;33768;48.578;11.574;2023-08-24T13:07:56;96234.44;;;37.70
48003;BMP280;33768;48.578;11.574;2023-08-24T13:11:00;96235.91;;;37.61
48003;BMP280;33768;48.578;11.574;2023-08-24T13:14:04;96233.78;;;37.65
48003;BMP280;33768;48.578;11.574;2023-08-24T13:17:08;96235.19;;;37.88
48003;BMP280;33768;48.578;11.574;2023-08-24T13:20:12;96220.97;;;37.51
48003;BMP280;33768;48.578;11.574;2023-08-24T13:23:16;96228.78;;;37.58
48003;BMP280;33768;48.578;11.574;2023-08-24T13:26:21;96220.94;;;37.78
48003;BMP280;33768;48.578;11.574;2023-08-24T13:29:27;96204.59;;;37.61
48003;BMP280;33768;48.578;11.574;2023-08-24T13:32:31;96208.13;;;37.69
48003;BMP280;33768;48.578;11.574;2023-08-24T13:35:35;96198.19;;;37.45
48003;BMP280;33768;48.578;11.574;2023-08-24T13:38:39;96193.91;;;36.98
48003;BMP280;33768;48.578;11.574;2023-08-24T13:41:44;96192.47;;;36.99
48003;BMP280;33768;48.578;11.574;2023-08-24T13:44:49;96182.50;;;36.94
48003;BMP280;33768;48.578;11.574;2023-08-24T13:47:53;96175.34;;;36.70
48003;BMP280;33768;48.578;11.574;2023-08-24T13:50:58;96173.22;;;36.64
48003;BMP280;33768;48.578;11.574;2023-08-24T13:54:02;96178.25;;;37.05
48003;BMP280;33768;48.578;11.574;2023-08-24T13:57:06;96176.13;;;37.16
48003;BMP280;33768;48.578;11.574;2023-08-24T14:00:10;96166.88;;;37.27
48003;BMP280;33768;48.578;11.574;2023-08-24T14:03:18;96156.94;;;37.12
48003;BMP280;33768;48.578;11.574;2023-08-24T14:06:22;96149.84;;;37.17
48003;BMP280;33768;48.578;11.574;2023-08-24T14:09:26;96154.09;;;36.98
48003;BMP280;33768;48.578;11.574;2023-08-24T14:12:31;96151.88;;;36.54
48003;BMP280;33768;48.578;11.574;2023-08-24T14:15:35;96143.22;;;36.18
48003;BMP280;33768;48.578;11.574;2023-08-24T14:18:39;96143.84;;;35.99
48003;BMP280;33768;48.578;11.574;2023-08-24T14:21:43;96143.09;;;35.98
48003;BMP280;33768;48.578;11.574;2023-08-24T14:24:48;96143.81;;;35.91
48003;BMP280;33768;48.578;11.574;2023-08-24T14:27:51;96139.69;;;36.20
48003;BMP280;33768;48.578;11.574;2023-08-24T14:30:55;96134.03;;;36.33
48003;BMP280;33768;48.578;11.574;2023-08-24T14:33:59;96129.72;;;36.13
48003;BMP280;33768;48.578;11.574;2023-08-24T14:37:03;96133.63;;;35.53
48003;BMP280;33768;48.578;11.574;2023-08-24T14:40:08;96126.72;;;34.81
48003;BMP280;33768;48.578;11.574;2023-08-24T14:43:12;96125.09;;;34.65
48003;BMP280;33768;48.578;11.574;2023-08-24T14:46:16;96125.75;;;34.59
48003;BMP280;33768;48.578;11.574;2023-08-24T14:49:20;96124.28;;;34.50
48003;BMP280;33768;48.578;11.574;2023-08-24T14:52:24;96123.66;;;34.62
48003;BMP280;33768;48.578;11.574;2023-08-24T14:55:28;96118.91;;;34.78
48003;BMP280;33768;48.578;11.574;2023-08-24T14:58:32;96117.25;;;34.59
48003;BMP280;33768;48.578;11.574;2023-08-24T15:01:36;96121.59;;;34.66
48003;BMP280;33768;48.578;11.574;2023-08-24T15:04:40;96116.53;;;34.57
48003;BMP280;33768;48.578;11.574;2023-08-24T15:07:53;96121.88;;;34.27
48003;BMP280;33768;48.578;11.574;2023-08-24T15:10:59;96113.19;;;34.11
48003;BMP280;33768;48.578;11.574;2023-08-24T15:14:03;96114.59;;;34.08
48003;BMP280;33768;48.578;11.574;2023-08-24T15:17:07;96110.97;;;34.00
48003;BMP280;33768;48.578;11.574;2023-08-24T15:20:11;96104.53;;;33.96
48003;BMP280;33768;48.578;11.574;2023-08-24T15:23:25;96096.09;;;34.00
48003;BMP280;33768;48.578;11.574;2023-08-24T15:26:29;96095.53;;;34.13
48003;BMP280;33768;48.578;11.574;2023-08-24T15:29:34;96088.94;;;33.93
48003;BMP280;33768;48.578;11.574;2023-08-24T15:32:38;96080.25;;;33.77
48003;BMP280;33768;48.578;11.574;2023-08-24T15:35:43;96089.19;;;33.58
48003;BMP280;33768;48.578;11.574;2023-08-24T15:38:47;96088.88;;;33.36
48003;BMP280;33768;48.578;11.574;2023-08-24T15:41:51;96088.44;;;33.08
48003;BMP280;33768;48.578;11.574;2023-08-24T15:44:58;96089.56;;;32.88
48003;BMP280;33768;48.578;11.574;2023-08-24T15:48:03;96085.03;;;32.71
48003;BMP280;33768;48.578;11.574;2023-08-24T15:51:10;96089.69;;;32.55
48003;BMP280;33768;48.578;11.574;2023-08-24T15:54:14;96081.44;;;32.26
48003;BMP280;33768;48.578;11.574;2023-08-24T15:57:19;96092.31;;;32.06
48003;BMP280;33768;48.578;11.574;2023-08-24T16:00:25;96083.97;;;31.77
48003;BMP280;33768;48.578;11.574;2023-08-24T16:03:33;96089.59;;;31.44
48003;BMP280;33768;48.578;11.574;2023-08-24T16:06:41;96097.19;;;31.07
48003;BMP280;33768;48.578;11.574;2023-08-24T16:09:45;96100.84;;;30.82
48003;BMP280;33768;48.578;11.574;2023-08-24T16:12:52;96099.09;;;30.69
48003;BMP280;33768;48.578;11.574;2023-08-24T16:15:59;96096.03;;;30.59
48003;BMP280;33768;48.578;11.574;2023-08-24T16:19:03;96102.19;;;30.52
48003;BMP280;33768;48.578;11.574;2023-08-24T16:22:07;96117.44;;;30.43
48003;BMP280;33768;48.578;11.574;2023-08-24T16:25:12;96103.22;;;30.37
48003;BMP280;33768;48.578;11.574;2023-08-24T16:28:16;96107.25;;;30.30
48003;BMP280;33768;48.578;11.574;2023-08-24T16:31:20;96103.47;;;30.20
48003;BMP280;33768;48.578;11.574;2023-08-24T16:34:24;96094.53;;;30.02
48003;BMP280;33768;48.578;11.574;2023-08-24T16:37:28;96096.28;;;29.90
48003;BMP280;33768;48.578;11.574;2023-08-24T16:40:35;96083.94;;;29.76
48003;BMP280;33768;48.578;11.574;2023-08-24T16:43:39;96094.91;;;29.66
48003;BMP280;33768;48.578;11.574;2023-08-24T16:46:45;96085.50;;;29.58
48003;BMP280;33768;48.578;11.574;2023-08-24T16:49:50;96098.63;;;29.49
48003;BMP280;33768;48.578;11.574;2023-08-24T16:52:54;96108.94;;;29.43
48003;BMP280;33768;48.578;11.574;2023-08-24T16:55:58;96116.38;;;29.32
48003;BMP280;33768;48.578;11.574;2023-08-24T16:59:02;96123.06;;;29.22
48003;BMP280;33768;48.578;11.574;2023-08-24T17:02:06;96130.41;;;29.09
48003;BMP280;33768;48.578;11.574;2023-08-24T17:05:11;96137.84;;;29.01
48003;BMP280;33768;48.578;11.574;2023-08-24T17:08:15;96143.88;;;28.92
48003;BMP280;33768;48.578;11.574;2023-08-24T17:11:19;96152.50;;;28.76
48003;BMP280;33768;48.578;11.574;2023-08-24T17:14:27;96154.19;;;28.64
48003;BMP280;33768;48.578;11.574;2023-08-24T17:17:32;96172.00;;;28.51
48003;BMP280;33768;48.578;11.574;2023-08-24T17:20:36;96177.84;;;28.38
48003;BMP280;33768;48.578;11.574;2023-08-24T17:23:40;96180.22;;;28.26
48003;BMP280;33768;48.578;11.574;2023-08-24T17:26:44;96187.84;;;28.04
48003;BMP280;33768;48.578;11.574;2023-08-24T17:29:48;96196.25;;;27.85
48003;BMP280;33768;48.578;11.574;2023-08-24T17:32:52;96198.75;;;27.77
48003;BMP280;33768;48.578;11.574;2023-08-24T17:35:57;96197.41;;;27.61
48003;BMP280;33768;48.578;11.574;2023-08-24T17:39:03;96187.78;;;27.47